sensor_id;sensor_type;location;lat;lon;timestamp;temperature;humidity
60353;DHT22;46196;52.970;6.954;2023-06-10T00:00:34;17.80;99.90
60353;DHT22;46196;52.970;6.954;2023-06-10T00:02:59;17.70;99.90
60353;DHT22;46196;52.970;6.954;2023-06-10T00:05:25;17.70;99.90
60353;DHT22;46196;52.970;6.954;2023-06-10T00:07:52;17.60;99.90
60353;DHT22;46196;52.970;6.954;2023-06-10T00:10:20;17.60;99.90
60353;DHT22;46196;52.970;6.954;2023-06-10T00:12:46;17.60;99.90
60353;DHT22;46196;52.970;6.954;2023-06-10T00:15:11;17.60;99.90
60353;DHT22;46196;52.970;6.954;2023-06-10T00:17:37;17.60;99.90
60353;DHT22;46196;52.970;6.954;2023-06-10T00:20:07;17.90;99.90
60353;DHT22;46196;52.970;6.954;2023-06-10T00:22:34;17.50;99.90
60353;DHT22;46196;52.970;6.954;2023-06-10T00:25:00;17.50;99.90
60353;DHT22;46196;52.970;6.954;2023-06-10T00:27:26;17.40;99.90
60353;DHT22;46196;52.970;6.954;2023-06-10T00:29:56;17.40;99.90
60353;DHT22;46196;52.970;6.954;2023-06-10T00:32:22;17.40;99.90
60353;DHT22;46196;52.970;6.954;2023-06-10T00:34:48;17.30;99.90
60353;DHT22;46196;52.970;6.954;2023-06-10T00:37:13;17.30;99.90
60353;DHT22;46196;52.970;6.954;2023-06-10T00:39:39;17.00;99.90
60353;DHT22;46196;52.970;6.954;2023-06-10T00:42:05;16.90;99.90
60353;DHT22;46196;52.970;6.954;2023-06-10T00:44:32;17.20;99.90
60353;DHT22;46196;52.970;6.954;2023-06-10T00:46:58;17.20;99.90
60353;DHT22;46196;52.970;6.954;2023-06-10T00:49:24;17.20;99.90
60353;DHT22;46196;52.970;6.954;2023-06-10T00:51:51;17.10;99.90
60353;DHT22;46196;52.970;6.954;2023-06-10T00:54:18;17.10;99.90
60353;DHT22;46196;52.970;6.954;2023-06-10T00:56:43;17.20;99.90
60353;DHT22;46196;52.970;6.954;2023-06-10T00:59:09;16.30;99.90
60353;DHT22;46196;52.970;6.954;2023-06-10T01:01:35;16.90;99.90
60353;DHT22;46196;52.970;6.954;2023-06-10T01:04:03;16.90;99.90
60353;DHT22;46196;52.970;6.954;2023-06-10T01:07:00;16.90;99.90
60353;DHT22;46196;52.970;6.954;2023-06-10T01:14:50;16.80;99.90
60353;DHT22;46196;52.970;6.954;2023-06-10T01:17:17;17.20;99.90
60353;DHT22;46196;52.970;6.954;2023-06-10T01:19:44;16.60;99.90
60353;DHT22;46196;52.970;6.954;2023-06-10T01:22:10;17.10;99.90
60353;DHT22;46196;52.970;6.954;2023-06-10T01:24:36;16.50;99.90
60353;DHT22;46196;52.970;6.954;2023-06-10T01:27:12;16.60;99.90
60353;DHT22;46196;52.970;6.954;2023-06-10T01:29:43;16.50;99.90
60353;DHT22;46196;52.970;6.954;2023-06-10T01:32:19;15.30;99.90
60353;DHT22;46196;52.970;6.954;2023-06-10T01:34:48;16.40;99.90
60353;DHT22;46196;52.970;6.954;2023-06-10T01:37:18;16.40;99.90
60353;DHT22;46196;52.970;6.954;2023-06-10T01:39:46;16.30;99.90
60353;DHT22;46196;52.970;6.954;2023-06-10T01:42:13;16.30;99.90
60353;DHT22;46196;52.970;6.954;2023-06-10T01:44:39;16.10;99.90
60353;DHT22;46196;52.970;6.954;2023-06-10T01:47:05;16.40;99.90
60353;DHT22;46196;52.970;6.954;2023-06-10T01:49:31;16.20;99.90
60353;DHT22;46196;52.970;6.954;2023-06-10T01:51:56;16.10;99.90
60353;DHT22;46196;52.970;6.954;2023-06-10T01:54:22;16.10;99.90
60353;DHT22;46196;52.970;6.954;2023-06-10T01:56:48;16.00;99.90
60353;DHT22;46196;52.970;6.954;2023-06-10T01:59:13;16.00;99.90
60353;DHT22;46196;52.970;6.954;2023-06-10T02:01:39;15.90;99.90
60353;DHT22;46196;52.970;6.954;2023-06-10T02:04:04;15.90;99.90
60353;DHT22;46196;52.970;6.954;2023-06-10T02:06:30;15.80;99.90
60353;DHT22;46196;52.970;6.954;2023-06-10T02:08:56;15.40;99.90
60353;DHT22;46196;52.970;6.954;2023-06-10T02:11:21;16.10;99.90
60353;DHT22;46196;52.970;6.954;2023-06-10T02:13:47;15.70;99.90
60353;DHT22;46196;52.970;6.954;2023-06-10T02:16:13;15.70;99.90
60353;DHT22;46196;52.970;6.954;2023-06-10T02:18:41;15.70;99.90
60353;DHT22;46196;52.970;6.954;2023-06-10T02:21:08;15.60;99.90
60353;DHT22;46196;52.970;6.954;2023-06-10T02:23:34;15.60;99.90
60353;DHT22;46196;52.970;6.954;2023-06-10T02:26:00;15.50;99.90
60353;DHT22;46196;52.970;6.954;2023-06-10T02:28:26;15.50;99.90
60353;DHT22;46196;52.970;6.954;2023-06-10T02:30:51;15.50;99.90
60353;DHT22;46196;52.970;6.954;2023-06-10T02:33:17;15.40;99.90
60353;DHT22;46196;52.970;6.954;2023-06-10T02:38:10;15.30;99.90
60353;DHT22;46196;52.970;6.954;2023-06-10T02:40:36;14.30;99.90
60353;DHT22;46196;52.970;6.954;2023-06-10T02:43:01;15.20;99.90
60353;DHT22;46196;52.970;6.954;2023-06-10T02:45:27;13.60;99.90
60353;DHT22;46196;52.970;6.954;2023-06-10T02:47:53;15.10;99.90
60353;DHT22;46196;52.970;6.954;2023-06-10T02:50:18;15.10;99.90
60353;DHT22;46196;52.970;6.954;2023-06-10T02:52:44;15.00;99.90
60353;DHT22;46196;52.970;6.954;2023-06-10T02:55:10;14.90;99.90
60353;DHT22;46196;52.970;6.954;2023-06-10T02:57:36;14.90;99.90
60353;DHT22;46196;52.970;6.954;2023-06-10T03:00:01;15.80;99.90
60353;DHT22;46196;52.970;6.954;2023-06-10T03:02:30;14.80;99.90
60353;DHT22;46196;52.970;6.954;2023-06-10T03:04:57;14.80;99.90
60353;DHT22;46196;52.970;6.954;2023-06-10T03:07:23;14.70;99.90
60353;DHT22;46196;52.970;6.954;2023-06-10T03:09:49;14.80;99.90
60353;DHT22;46196;52.970;6.954;2023-06-10T03:12:15;15.90;99.90
60353;DHT22;46196;52.970;6.954;2023-06-10T03:14:42;14.60;99.90
60353;DHT22;46196;52.970;6.954;2023-06-10T03:17:08;14.60;99.90
60353;DHT22;46196;52.970;6.954;2023-06-10T03:19:36;14.70;99.90
60353;DHT22;46196;52.970;6.954;2023-06-10T03:22:14;14.50;99.90
60353;DHT22;46196;52.970;6.954;2023-06-10T03:24:40;14.10;99.90
60353;DHT22;46196;52.970;6.954;2023-06-10T03:27:12;14.50;99.90
60353;DHT22;46196;52.970;6.954;2023-06-10T03:29:39;14.40;99.90
60353;DHT22;46196;52.970;6.954;2023-06-10T03:32:05;14.30;99.90
60353;DHT22;46196;52.970;6.954;2023-06-10T03:34:31;13.90;99.90
60353;DHT22;46196;52.970;6.954;2023-06-10T03:36:57;14.20;99.90
60353;DHT22;46196;52.970;6.954;2023-06-10T03:39:23;14.30;99.90
60353;DHT22;46196;52.970;6.954;2023-06-10T03:41:50;14.30;99.90
60353;DHT22;46196;52.970;6.954;2023-06-10T03:44:15;14.30;99.90
60353;DHT22;46196;52.970;6.954;2023-06-10T03:46:41;14.20;99.90
60353;DHT22;46196;52.970;6.954;2023-06-10T03:49:07;15.30;99.90
60353;DHT22;46196;52.970;6.954;2023-06-10T03:51:32;14.10;99.90
60353;DHT22;46196;52.970;6.954;2023-06-10T03:53:58;14.60;99.90
60353;DHT22;46196;52.970;6.954;2023-06-10T03:56:24;16.30;99.90
60353;DHT22;46196;52.970;6.954;2023-06-10T03:58:49;14.20;99.90
60353;DHT22;46196;52.970;6.954;2023-06-10T04:01:15;15.80;99.90
60353;DHT22;46196;52.970;6.954;2023-06-10T04:03:43;13.00;99.90
60353;DHT22;46196;52.970;6.954;2023-06-10T04:06:09;14.10;99.90
60353;DHT22;46196;52.970;6.954;2023-06-10T04:08:34;14.10;99.90
60353;DHT22;46196;52.970;6.954;2023-06-10T04:11:01;12.80;99.90
60353;DHT22;46196;52.970;6.954;2023-06-10T04:13:27;15.10;99.90
60353;DHT22;46196;52.970;6.954;2023-06-10T04:15:53;14.10;99.90
60353;DHT22;46196;52.970;6.954;2023-06-10T04:18:20;14.10;99.90
60353;DHT22;46196;52.970;6.954;2023-06-10T04:20:46;14.10;99.90
60353;DHT22;46196;52.970;6.954;2023-06-10T04:23:11;13.40;99.90
60353;DHT22;46196;52.970;6.954;2023-06-10T04:25:37;14.10;99.90
60353;DHT22;46196;52.970;6.954;2023-06-10T04:28:03;14.70;99.90
60353;DHT22;46196;52.970;6.954;2023-06-10T04:30:28;14.20;99.90
60353;DHT22;46196;52.970;6.954;2023-06-10T04:32:54;13.80;99.90
60353;DHT22;46196;52.970;6.954;2023-06-10T04:35:19;14.10;99.90
60353;DHT22;46196;52.970;6.954;2023-06-10T04:37:45;14.30;99.90
60353;DHT22;46196;52.970;6.954;2023-06-10T04:40:11;14.80;99.90
60353;DHT22;46196;52.970;6.954;2023-06-10T04:42:37;14.50;99.90
60353;DHT22;46196;52.970;6.954;2023-06-10T04:45:03;14.30;99.90
60353;DHT22;46196;52.970;6.954;2023-06-10T04:47:31;14.30;99.90
60353;DHT22;46196;52.970;6.954;2023-06-10T04:49:59;13.20;99.90
60353;DHT22;46196;52.970;6.954;2023-06-10T04:52:25;14.60;99.90
60353;DHT22;46196;52.970;6.954;2023-06-10T04:54:51;14.60;99.90
60353;DHT22;46196;52.970;6.954;2023-06-10T04:57:16;14.00;99.90
60353;DHT22;46196;52.970;6.954;2023-06-10T04:59:42;14.40;99.90
60353;DHT22;46196;52.970;6.954;2023-06-10T05:02:08;14.50;99.90
60353;DHT22;46196;52.970;6.954;2023-06-10T05:04:33;13.80;99.90
60353;DHT22;46196;52.970;6.954;2023-06-10T05:06:59;14.50;99.90
60353;DHT22;46196;52.970;6.954;2023-06-10T05:09:25;14.60;99.90
60353;DHT22;46196;52.970;6.954;2023-06-10T05:11:51;14.40;99.90
60353;DHT22;46196;52.970;6.954;2023-06-10T05:14:19;15.20;99.90
60353;DHT22;46196;52.970;6.954;2023-06-10T05:16:46;14.70;99.90
60353;DHT22;46196;52.970;6.954;2023-06-10T05:19:12;14.70;99.90
60353;DHT22;46196;52.970;6.954;2023-06-10T05:21:38;14.80;99.90
60353;DHT22;46196;52.970;6.954;2023-06-10T05:24:04;14.80;99.90
60353;DHT22;46196;52.970;6.954;2023-06-10T05:26:29;14.80;99.90
60353;DHT22;46196;52.970;6.954;2023-06-10T05:28:57;14.80;99.90
60353;DHT22;46196;52.970;6.954;2023-06-10T05:31:23;14.90;99.90
60353;DHT22;46196;52.970;6.954;2023-06-10T05:33:49;15.00;99.90
60353;DHT22;46196;52.970;6.954;2023-06-10T05:36:14;14.90;99.90
60353;DHT22;46196;52.970;6.954;2023-06-10T05:38:40;15.00;99.90
60353;DHT22;46196;52.970;6.954;2023-06-10T05:41:06;15.10;99.90
60353;DHT22;46196;52.970;6.954;2023-06-10T05:43:32;15.10;99.90
60353;DHT22;46196;52.970;6.954;2023-06-10T05:45:57;15.20;99.90
60353;DHT22;46196;52.970;6.954;2023-06-10T05:48:23;15.40;99.90
60353;DHT22;46196;52.970;6.954;2023-06-10T05:50:49;15.30;99.90
60353;DHT22;46196;52.970;6.954;2023-06-10T05:53:15;15.40;99.90
60353;DHT22;46196;52.970;6.954;2023-06-10T05:55:42;15.40;99.90
60353;DHT22;46196;52.970;6.954;2023-06-10T05:58:09;15.50;99.90
60353;DHT22;46196;52.970;6.954;2023-06-10T06:00:35;15.00;99.90
60353;DHT22;46196;52.970;6.954;2023-06-10T06:03:01;15.50;99.90
60353;DHT22;46196;52.970;6.954;2023-06-10T06:05:26;15.60;99.90
60353;DHT22;46196;52.970;6.954;2023-06-10T06:07:52;15.70;99.90
60353;DHT22;46196;52.970;6.954;2023-06-10T06:10:18;15.70;99.90
60353;DHT22;46196;52.970;6.954;2023-06-10T06:12:44;15.70;99.90
60353;DHT22;46196;52.970;6.954;2023-06-10T06:15:10;15.80;99.90
60353;DHT22;46196;52.970;6.954;2023-06-10T06:17:36;15.80;99.90
60353;DHT22;46196;52.970;6.954;2023-06-10T06:20:03;16.40;99.90
60353;DHT22;46196;52.970;6.954;2023-06-10T06:22:28;15.90;99.90
60353;DHT22;46196;52.970;6.954;2023-06-10T06:24:54;16.00;99.90
60353;DHT22;46196;52.970;6.954;2023-06-10T06:27:20;16.00;99.90
60353;DHT22;46196;52.970;6.954;2023-06-10T06:29:46;16.10;99.90
60353;DHT22;46196;52.970;6.954;2023-06-10T06:32:12;16.10;99.90
60353;DHT22;46196;52.970;6.954;2023-06-10T06:34:38;16.10;99.90
60353;DHT22;46196;52.970;6.954;2023-06-10T06:37:04;16.20;99.90
60353;DHT22;46196;52.970;6.954;2023-06-10T06:39:29;16.20;99.90
60353;DHT22;46196;52.970;6.954;2023-06-10T06:41:55;16.30;99.90
60353;DHT22;46196;52.970;6.954;2023-06-10T06:44:21;16.40;99.90
60353;DHT22;46196;52.970;6.954;2023-06-10T06:46:46;16.50;99.90
60353;DHT22;46196;52.970;6.954;2023-06-10T06:49:12;16.60;99.90
60353;DHT22;46196;52.970;6.954;2023-06-10T06:51:38;16.60;99.90
60353;DHT22;46196;52.970;6.954;2023-06-10T06:54:03;16.70;99.90
60353;DHT22;46196;52.970;6.954;2023-06-10T06:56:31;16.80;99.90
60353;DHT22;46196;52.970;6.954;2023-06-10T06:58:56;16.90;99.90
60353;DHT22;46196;52.970;6.954;2023-06-10T07:01:22;16.90;99.90
60353;DHT22;46196;52.970;6.954;2023-06-10T07:03:47;17.00;99.90
60353;DHT22;46196;52.970;6.954;2023-06-10T07:06:13;17.10;99.90
60353;DHT22;46196;52.970;6.954;2023-06-10T07:08:39;17.30;99.90
60353;DHT22;46196;52.970;6.954;2023-06-10T07:11:05;17.30;99.90
60353;DHT22;46196;52.970;6.954;2023-06-10T07:13:30;17.40;99.90
60353;DHT22;46196;52.970;6.954;2023-06-10T07:15:56;17.60;99.90
60353;DHT22;46196;52.970;6.954;2023-06-10T07:18:22;18.50;99.90
60353;DHT22;46196;52.970;6.954;2023-06-10T07:20:47;17.80;99.90
60353;DHT22;46196;52.970;6.954;2023-06-10T07:23:13;18.00;99.90
60353;DHT22;46196;52.970;6.954;2023-06-10T07:25:38;18.70;99.90
60353;DHT22;46196;52.970;6.954;2023-06-10T07:28:04;19.70;99.90
60353;DHT22;46196;52.970;6.954;2023-06-10T07:30:30;20.60;99.90
60353;DHT22;46196;52.970;6.954;2023-06-10T07:32:55;21.40;99.90
60353;DHT22;46196;52.970;6.954;2023-06-10T07:35:21;22.20;99.90
60353;DHT22;46196;52.970;6.954;2023-06-10T07:37:47;22.90;99.90
60353;DHT22;46196;52.970;6.954;2023-06-10T07:40:13;23.40;99.90
60353;DHT22;46196;52.970;6.954;2023-06-10T07:42:38;23.90;99.90
60353;DHT22;46196;52.970;6.954;2023-06-10T07:45:04;24.50;99.90
60353;DHT22;46196;52.970;6.954;2023-06-10T07:47:32;24.80;99.00
60353;DHT22;46196;52.970;6.954;2023-06-10T07:49:58;25.10;98.30
60353;DHT22;46196;52.970;6.954;2023-06-10T07:52:24;25.50;96.00
60353;DHT22;46196;52.970;6.954;2023-06-10T07:54:51;25.40;95.70
60353;DHT22;46196;52.970;6.954;2023-06-10T07:57:17;25.60;94.50
60353;DHT22;46196;52.970;6.954;2023-06-10T07:59:43;25.80;94.10
60353;DHT22;46196;52.970;6.954;2023-06-10T08:02:09;26.20;92.10
60353;DHT22;46196;52.970;6.954;2023-06-10T08:04:35;26.40;86.50
60353;DHT22;46196;52.970;6.954;2023-06-10T08:07:01;26.60;87.60
60353;DHT22;46196;52.970;6.954;2023-06-10T08:09:27;26.80;81.00
60353;DHT22;46196;52.970;6.954;2023-06-10T08:11:53;26.90;84.10
60353;DHT22;46196;52.970;6.954;2023-06-10T08:14:19;27.20;84.00
60353;DHT22;46196;52.970;6.954;2023-06-10T08:16:45;27.40;81.80
60353;DHT22;46196;52.970;6.954;2023-06-10T08:19:11;27.70;81.00
60353;DHT22;46196;52.970;6.954;2023-06-10T08:21:36;27.90;77.60
60353;DHT22;46196;52.970;6.954;2023-06-10T08:24:03;28.00;71.30
60353;DHT22;46196;52.970;6.954;2023-06-10T08:26:28;28.00;72.90
60353;DHT22;46196;52.970;6.954;2023-06-10T08:28:54;28.00;73.40
60353;DHT22;46196;52.970;6.954;2023-06-10T08:31:21;28.30;72.70
60353;DHT22;46196;52.970;6.954;2023-06-10T08:33:46;28.10;69.80
60353;DHT22;46196;52.970;6.954;2023-06-10T08:36:12;28.20;69.20
60353;DHT22;46196;52.970;6.954;2023-06-10T08:38:38;28.30;69.70
60353;DHT22;46196;52.970;6.954;2023-06-10T08:41:05;28.50;68.20
60353;DHT22;46196;52.970;6.954;2023-06-10T08:43:32;28.80;66.00
60353;DHT22;46196;52.970;6.954;2023-06-10T08:46:00;29.00;66.40
60353;DHT22;46196;52.970;6.954;2023-06-10T08:48:29;29.10;63.70
60353;DHT22;46196;52.970;6.954;2023-06-10T08:50:57;29.00;61.50
60353;DHT22;46196;52.970;6.954;2023-06-10T08:53:24;29.00;62.20
60353;DHT22;46196;52.970;6.954;2023-06-10T08:55:51;28.90;64.30
60353;DHT22;46196;52.970;6.954;2023-06-10T08:58:20;29.00;62.90
60353;DHT22;46196;52.970;6.954;2023-06-10T09:00:45;28.80;61.00
60353;DHT22;46196;52.970;6.954;2023-06-10T09:03:11;28.80;61.10
60353;DHT22;46196;52.970;6.954;2023-06-10T09:05:38;28.90;59.90
60353;DHT22;46196;52.970;6.954;2023-06-10T09:08:06;29.00;60.40
60353;DHT22;46196;52.970;6.954;2023-06-10T09:10:32;29.10;60.50
60353;DHT22;46196;52.970;6.954;2023-06-10T09:12:58;29.20;57.70
60353;DHT22;46196;52.970;6.954;2023-06-10T09:15:23;29.10;56.00
60353;DHT22;46196;52.970;6.954;2023-06-10T09:17:49;28.90;57.30
60353;DHT22;46196;52.970;6.954;2023-06-10T09:20:16;28.90;57.70
60353;DHT22;46196;52.970;6.954;2023-06-10T09:22:42;28.90;57.90
60353;DHT22;46196;52.970;6.954;2023-06-10T09:25:12;29.10;58.80
60353;DHT22;46196;52.970;6.954;2023-06-10T09:27:49;29.20;58.30
60353;DHT22;46196;52.970;6.954;2023-06-10T09:30:29;29.30;56.90
60353;DHT22;46196;52.970;6.954;2023-06-10T09:32:56;29.40;57.80
60353;DHT22;46196;52.970;6.954;2023-06-10T09:35:23;29.50;58.20
60353;DHT22;46196;52.970;6.954;2023-06-10T09:37:55;29.70;57.50
60353;DHT22;46196;52.970;6.954;2023-06-10T09:40:20;29.90;56.60
60353;DHT22;46196;52.970;6.954;2023-06-10T09:42:46;29.90;56.50
60353;DHT22;46196;52.970;6.954;2023-06-10T09:45:20;29.80;55.20
60353;DHT22;46196;52.970;6.954;2023-06-10T09:47:47;29.70;55.10
60353;DHT22;46196;52.970;6.954;2023-06-10T09:50:13;29.80;54.40
60353;DHT22;46196;52.970;6.954;2023-06-10T09:52:39;29.90;53.10
60353;DHT22;46196;52.970;6.954;2023-06-10T09:55:08;29.80;53.10
60353;DHT22;46196;52.970;6.954;2023-06-10T09:57:33;29.90;52.60
60353;DHT22;46196;52.970;6.954;2023-06-10T10:00:05;29.90;51.00
60353;DHT22;46196;52.970;6.954;2023-06-10T10:02:31;29.90;52.00
60353;DHT22;46196;52.970;6.954;2023-06-10T10:05:03;29.80;52.10
60353;DHT22;46196;52.970;6.954;2023-06-10T10:07:29;29.80;50.40
60353;DHT22;46196;52.970;6.954;2023-06-10T10:09:55;29.80;50.60
60353;DHT22;46196;52.970;6.954;2023-06-10T10:12:21;29.70;51.10
60353;DHT22;46196;52.970;6.954;2023-06-10T10:14:47;29.60;51.10
60353;DHT22;46196;52.970;6.954;2023-06-10T10:17:14;29.60;50.90
60353;DHT22;46196;52.970;6.954;2023-06-10T10:19:46;29.60;50.30
60353;DHT22;46196;52.970;6.954;2023-06-10T10:22:26;29.60;50.20
60353;DHT22;46196;52.970;6.954;2023-06-10T10:25:01;29.70;49.80
60353;DHT22;46196;52.970;6.954;2023-06-10T10:27:30;29.70;48.90
60353;DHT22;46196;52.970;6.954;2023-06-10T10:29:58;29.70;49.80
60353;DHT22;46196;52.970;6.954;2023-06-10T10:32:37;29.60;49.20
60353;DHT22;46196;52.970;6.954;2023-06-10T10:35:08;29.70;49.70
60353;DHT22;46196;52.970;6.954;2023-06-10T10:37:35;29.80;50.20
60353;DHT22;46196;52.970;6.954;2023-06-10T10:40:02;29.80;50.30
60353;DHT22;46196;52.970;6.954;2023-06-10T10:42:29;29.80;51.40
60353;DHT22;46196;52.970;6.954;2023-06-10T10:44:56;29.80;51.40
60353;DHT22;46196;52.970;6.954;2023-06-10T10:47:22;30.60;49.90
60353;DHT22;46196;52.970;6.954;2023-06-10T10:49:51;30.10;50.20
60353;DHT22;46196;52.970;6.954;2023-06-10T10:52:20;30.20;49.70
60353;DHT22;46196;52.970;6.954;2023-06-10T10:54:46;30.30;49.10
60353;DHT22;46196;52.970;6.954;2023-06-10T10:57:32;30.30;49.20
60353;DHT22;46196;52.970;6.954;2023-06-10T11:00:03;30.40;49.50
60353;DHT22;46196;52.970;6.954;2023-06-10T11:02:44;30.50;49.30
60353;DHT22;46196;52.970;6.954;2023-06-10T11:05:14;30.60;47.20
60353;DHT22;46196;52.970;6.954;2023-06-10T11:07:40;30.60;48.40
60353;DHT22;46196;52.970;6.954;2023-06-10T11:10:10;30.70;48.00
60353;DHT22;46196;52.970;6.954;2023-06-10T11:15:33;30.80;44.70
60353;DHT22;46196;52.970;6.954;2023-06-10T11:18:10;30.80;46.60
60353;DHT22;46196;52.970;6.954;2023-06-10T11:20:54;30.90;47.00
60353;DHT22;46196;52.970;6.954;2023-06-10T11:23:32;30.90;46.80
60353;DHT22;46196;52.970;6.954;2023-06-10T11:26:14;31.00;47.30
60353;DHT22;46196;52.970;6.954;2023-06-10T11:31:42;31.00;45.00
60353;DHT22;46196;52.970;6.954;2023-06-10T11:34:08;30.80;45.10
60353;DHT22;46196;52.970;6.954;2023-06-10T11:36:38;30.70;45.70
60353;DHT22;46196;52.970;6.954;2023-06-10T11:39:06;30.90;45.40
60353;DHT22;46196;52.970;6.954;2023-06-10T11:41:33;31.00;45.90
60353;DHT22;46196;52.970;6.954;2023-06-10T11:44:13;31.20;45.90
60353;DHT22;46196;52.970;6.954;2023-06-10T11:46:39;31.30;43.80
60353;DHT22;46196;52.970;6.954;2023-06-10T11:49:07;31.30;44.00
60353;DHT22;46196;52.970;6.954;2023-06-10T11:51:38;31.40;44.10
60353;DHT22;46196;52.970;6.954;2023-06-10T11:54:05;31.40;43.80
60353;DHT22;46196;52.970;6.954;2023-06-10T11:56:31;31.40;44.00
60353;DHT22;46196;52.970;6.954;2023-06-10T11:59:07;31.50;44.30
60353;DHT22;46196;52.970;6.954;2023-06-10T12:01:38;31.80;44.60
60353;DHT22;46196;52.970;6.954;2023-06-10T12:04:14;31.60;44.70
60353;DHT22;46196;52.970;6.954;2023-06-10T12:06:50;31.60;44.90
60353;DHT22;46196;52.970;6.954;2023-06-10T12:09:27;31.70;44.80
60353;DHT22;46196;52.970;6.954;2023-06-10T12:11:56;31.60;39.20
60353;DHT22;46196;52.970;6.954;2023-06-10T12:20:23;31.70;42.10
60353;DHT22;46196;52.970;6.954;2023-06-10T12:22:49;31.80;42.20
60353;DHT22;46196;52.970;6.954;2023-06-10T12:25:15;31.60;41.80
60353;DHT22;46196;52.970;6.954;2023-06-10T12:27:54;31.60;42.80
60353;DHT22;46196;52.970;6.954;2023-06-10T12:30:22;31.70;44.10
60353;DHT22;46196;52.970;6.954;2023-06-10T12:32:48;31.80;43.80
60353;DHT22;46196;52.970;6.954;2023-06-10T12:35:17;31.90;43.70
60353;DHT22;46196;52.970;6.954;2023-06-10T12:38:00;31.90;43.80
60353;DHT22;46196;52.970;6.954;2023-06-10T12:40:28;32.20;41.40
60353;DHT22;46196;52.970;6.954;2023-06-10T12:42:54;32.10;42.20
60353;DHT22;46196;52.970;6.954;2023-06-10T12:45:30;32.30;42.80
60353;DHT22;46196;52.970;6.954;2023-06-10T12:48:12;32.10;43.00
60353;DHT22;46196;52.970;6.954;2023-06-10T12:50:42;32.20;43.10
60353;DHT22;46196;52.970;6.954;2023-06-10T12:53:09;32.10;43.10
60353;DHT22;46196;52.970;6.954;2023-06-10T12:55:37;31.90;42.20
60353;DHT22;46196;52.970;6.954;2023-06-10T12:58:03;32.00;42.90
60353;DHT22;46196;52.970;6.954;2023-06-10T13:00:29;31.90;42.60
60353;DHT22;46196;52.970;6.954;2023-06-10T13:03:00;31.80;43.40
60353;DHT22;46196;52.970;6.954;2023-06-10T13:05:27;31.70;41.70
60353;DHT22;46196;52.970;6.954;2023-06-10T13:07:53;31.80;40.60
60353;DHT22;46196;52.970;6.954;2023-06-10T13:10:22;31.90;40.50
60353;DHT22;46196;52.970;6.954;2023-06-10T13:12:48;32.00;40.40
60353;DHT22;46196;52.970;6.954;2023-06-10T13:15:14;32.00;41.40
60353;DHT22;46196;52.970;6.954;2023-06-10T13:17:40;32.00;41.80
60353;DHT22;46196;52.970;6.954;2023-06-10T13:20:07;32.10;40.10
60353;DHT22;46196;52.970;6.954;2023-06-10T13:22:33;32.10;41.00
60353;DHT22;46196;52.970;6.954;2023-06-10T13:25:01;32.20;41.10
60353;DHT22;46196;52.970;6.954;2023-06-10T13:27:26;32.30;41.00
60353;DHT22;46196;52.970;6.954;2023-06-10T13:29:52;32.30;40.40
60353;DHT22;46196;52.970;6.954;2023-06-10T13:32:18;32.30;40.70
60353;DHT22;46196;52.970;6.954;2023-06-10T13:34:44;32.10;39.80
60353;DHT22;46196;52.970;6.954;2023-06-10T13:37:10;32.00;39.80
60353;DHT22;46196;52.970;6.954;2023-06-10T13:39:38;32.00;39.90
60353;DHT22;46196;52.970;6.954;2023-06-10T13:42:04;32.10;39.90
60353;DHT22;46196;52.970;6.954;2023-06-10T13:44:30;32.20;40.20
60353;DHT22;46196;52.970;6.954;2023-06-10T13:46:59;32.20;39.70
60353;DHT22;46196;52.970;6.954;2023-06-10T13:49:26;32.20;40.30
60353;DHT22;46196;52.970;6.954;2023-06-10T13:51:51;32.00;40.50
60353;DHT22;46196;52.970;6.954;2023-06-10T13:54:17;31.90;40.40
60353;DHT22;46196;52.970;6.954;2023-06-10T13:56:43;31.80;40.40
60353;DHT22;46196;52.970;6.954;2023-06-10T13:59:08;31.70;40.30
60353;DHT22;46196;52.970;6.954;2023-06-10T14:01:34;31.70;40.80
60353;DHT22;46196;52.970;6.954;2023-06-10T14:04:00;31.90;40.90
60353;DHT22;46196;52.970;6.954;2023-06-10T14:06:26;32.10;40.40
60353;DHT22;46196;52.970;6.954;2023-06-10T14:08:52;32.40;39.70
60353;DHT22;46196;52.970;6.954;2023-06-10T14:11:20;32.50;39.70
60353;DHT22;46196;52.970;6.954;2023-06-10T14:13:46;32.60;40.40
60353;DHT22;46196;52.970;6.954;2023-06-10T14:16:12;32.60;35.20
60353;DHT22;46196;52.970;6.954;2023-06-10T14:18:38;32.40;35.10
60353;DHT22;46196;52.970;6.954;2023-06-10T14:21:03;32.40;33.80
60353;DHT22;46196;52.970;6.954;2023-06-10T14:23:29;32.20;34.40
60353;DHT22;46196;52.970;6.954;2023-06-10T14:25:55;32.30;35.20
60353;DHT22;46196;52.970;6.954;2023-06-10T14:28:20;32.40;34.50
60353;DHT22;46196;52.970;6.954;2023-06-10T14:30:46;32.50;33.00
60353;DHT22;46196;52.970;6.954;2023-06-10T14:33:12;32.40;32.60
60353;DHT22;46196;52.970;6.954;2023-06-10T14:35:37;32.50;33.60
60353;DHT22;46196;52.970;6.954;2023-06-10T14:38:03;32.50;33.40
60353;DHT22;46196;52.970;6.954;2023-06-10T14:40:29;32.50;34.10
60353;DHT22;46196;52.970;6.954;2023-06-10T14:42:55;32.40;33.50
60353;DHT22;46196;52.970;6.954;2023-06-10T14:45:21;32.40;32.70
60353;DHT22;46196;52.970;6.954;2023-06-10T14:47:47;32.30;32.10
60353;DHT22;46196;52.970;6.954;2023-06-10T14:50:13;32.30;32.70
60353;DHT22;46196;52.970;6.954;2023-06-10T14:52:40;32.30;32.60
60353;DHT22;46196;52.970;6.954;2023-06-10T14:55:06;32.40;31.70
60353;DHT22;46196;52.970;6.954;2023-06-10T14:57:31;32.40;31.80
60353;DHT22;46196;52.970;6.954;2023-06-10T14:59:57;32.60;32.10
60353;DHT22;46196;52.970;6.954;2023-06-10T15:02:23;32.70;31.80
60353;DHT22;46196;52.970;6.954;2023-06-10T15:04:49;32.70;32.30
60353;DHT22;46196;52.970;6.954;2023-06-10T15:07:14;32.80;33.20
60353;DHT22;46196;52.970;6.954;2023-06-10T15:09:41;32.90;33.00
60353;DHT22;46196;52.970;6.954;2023-06-10T15:12:08;32.80;33.00
60353;DHT22;46196;52.970;6.954;2023-06-10T15:14:33;32.80;33.30
60353;DHT22;46196;52.970;6.954;2023-06-10T15:16:59;32.80;33.30
60353;DHT22;46196;52.970;6.954;2023-06-10T15:19:26;32.80;33.10
60353;DHT22;46196;52.970;6.954;2023-06-10T15:21:52;32.80;32.50
60353;DHT22;46196;52.970;6.954;2023-06-10T15:24:18;32.70;32.80
60353;DHT22;46196;52.970;6.954;2023-06-10T15:26:44;32.70;33.30
60353;DHT22;46196;52.970;6.954;2023-06-10T15:29:10;32.80;33.30
60353;DHT22;46196;52.970;6.954;2023-06-10T15:31:35;32.80;33.30
60353;DHT22;46196;52.970;6.954;2023-06-10T15:34:01;32.90;33.10
60353;DHT22;46196;52.970;6.954;2023-06-10T15:36:27;32.90;33.40
60353;DHT22;46196;52.970;6.954;2023-06-10T15:38:53;33.00;33.30
60353;DHT22;46196;52.970;6.954;2023-06-10T15:41:20;33.10;33.50
60353;DHT22;46196;52.970;6.954;2023-06-10T15:43:46;33.20;33.70
60353;DHT22;46196;52.970;6.954;2023-06-10T15:46:12;33.40;33.40
60353;DHT22;46196;52.970;6.954;2023-06-10T15:48:37;33.60;33.50